sensor_id;sensor_type;location;lat;lon;timestamp;P1;durP1;ratioP1;P2;durP2;ratioP2
36205;SDS011;22242;48.796;9.930;2022-07-10T00:00:35;4.60;;;3.10;;
36205;SDS011;22242;48.796;9.930;2022-07-10T00:03:04;3.63;;;2.58;;
36205;SDS011;22242;48.796;9.930;2022-07-10T00:05:31;2.92;;;2.70;;
36205;SDS011;22242;48.796;9.930;2022-07-10T00:08:00;3.10;;;2.80;;
36205;SDS011;22242;48.796;9.930;2022-07-10T00:10:28;3.33;;;2.88;;
36205;SDS011;22242;48.796;9.930;2022-07-10T00:12:56;5.75;;;2.90;;
36205;SDS011;22242;48.796;9.930;2022-07-10T00:15:23;3.30;;;3.00;;
36205;SDS011;22242;48.796;9.930;2022-07-10T00:17:50;3.28;;;2.97;;
36205;SDS011;22242;48.796;9.930;2022-07-10T00:20:19;3.30;;;3.00;;
36205;SDS011;22242;48.796;9.930;2022-07-10T00:22:45;3.33;;;3.03;;
36205;SDS011;22242;48.796;9.930;2022-07-10T00:25:13;3.83;;;2.95;;
36205;SDS011;22242;48.796;9.930;2022-07-10T00:27:40;3.20;;;2.97;;
36205;SDS011;22242;48.796;9.930;2022-07-10T00:30:08;2.95;;;2.75;;
36205;SDS011;22242;48.796;9.930;2022-07-10T00:32:36;2.95;;;2.75;;
36205;SDS011;22242;48.796;9.930;2022-07-10T00:35:03;3.38;;;3.05;;
36205;SDS011;22242;48.796;9.930;2022-07-10T00:37:33;3.15;;;2.95;;
36205;SDS011;22242;48.796;9.930;2022-07-10T00:40:01;3.83;;;3.30;;
36205;SDS011;22242;48.796;9.930;2022-07-10T00:42:30;4.03;;;3.30;;
36205;SDS011;22242;48.796;9.930;2022-07-10T00:44:57;4.68;;;3.17;;
36205;SDS011;22242;48.796;9.930;2022-07-10T00:47:25;4.65;;;3.42;;
36205;SDS011;22242;48.796;9.930;2022-07-10T00:49:52;4.47;;;3.38;;
36205;SDS011;22242;48.796;9.930;2022-07-10T00:52:19;5.80;;;3.50;;
36205;SDS011;22242;48.796;9.930;2022-07-10T00:54:49;3.92;;;3.53;;
36205;SDS011;22242;48.796;9.930;2022-07-10T00:57:16;4.82;;;3.28;;
36205;SDS011;22242;48.796;9.930;2022-07-10T00:59:45;3.72;;;3.30;;
36205;SDS011;22242;48.796;9.930;2022-07-10T01:02:13;4.15;;;3.75;;
36205;SDS011;22242;48.796;9.930;2022-07-10T01:04:41;3.13;;;2.92;;
36205;SDS011;22242;48.796;9.930;2022-07-10T01:07:08;4.47;;;3.78;;
36205;SDS011;22242;48.796;9.930;2022-07-10T01:09:36;3.92;;;3.50;;
36205;SDS011;22242;48.796;9.930;2022-07-10T01:12:05;4.75;;;3.63;;
36205;SDS011;22242;48.796;9.930;2022-07-10T01:14:33;5.55;;;3.78;;
36205;SDS011;22242;48.796;9.930;2022-07-10T01:17:03;4.15;;;3.75;;
36205;SDS011;22242;48.796;9.930;2022-07-10T01:19:31;4.80;;;3.80;;
36205;SDS011;22242;48.796;9.930;2022-07-10T01:21:59;4.20;;;3.80;;
36205;SDS011;22242;48.796;9.930;2022-07-10T01:24:26;5.60;;;4.15;;
36205;SDS011;22242;48.796;9.930;2022-07-10T01:26:53;4.72;;;3.67;;
36205;SDS011;22242;48.796;9.930;2022-07-10T01:29:20;5.80;;;4.10;;
36205;SDS011;22242;48.796;9.930;2022-07-10T01:31:49;6.40;;;3.95;;
36205;SDS011;22242;48.796;9.930;2022-07-10T01:34:15;6.68;;;4.00;;
36205;SDS011;22242;48.796;9.930;2022-07-10T01:36:43;4.07;;;3.67;;
36205;SDS011;22242;48.796;9.930;2022-07-10T01:39:12;4.18;;;3.72;;
36205;SDS011;22242;48.796;9.930;2022-07-10T01:41:39;5.18;;;4.10;;
36205;SDS011;22242;48.796;9.930;2022-07-10T01:44:06;5.40;;;3.80;;
36205;SDS011;22242;48.796;9.930;2022-07-10T01:46:33;6.60;;;3.97;;
36205;SDS011;22242;48.796;9.930;2022-07-10T01:49:00;5.93;;;3.97;;
36205;SDS011;22242;48.796;9.930;2022-07-10T01:51:27;5.75;;;4.50;;
36205;SDS011;22242;48.796;9.930;2022-07-10T01:53:54;5.00;;;4.07;;
36205;SDS011;22242;48.796;9.930;2022-07-10T01:56:23;4.38;;;3.80;;
36205;SDS011;22242;48.796;9.930;2022-07-10T01:58:49;6.53;;;4.53;;
36205;SDS011;22242;48.796;9.930;2022-07-10T02:01:16;5.50;;;4.50;;
36205;SDS011;22242;48.796;9.930;2022-07-10T02:03:44;5.32;;;4.45;;
36205;SDS011;22242;48.796;9.930;2022-07-10T02:06:28;7.05;;;4.15;;
36205;SDS011;22242;48.796;9.930;2022-07-10T02:08:55;5.15;;;4.32;;
36205;SDS011;22242;48.796;9.930;2022-07-10T02:11:24;9.48;;;4.68;;
36205;SDS011;22242;48.796;9.930;2022-07-10T02:13:51;6.32;;;4.25;;
36205;SDS011;22242;48.796;9.930;2022-07-10T02:16:18;6.10;;;4.18;;
36205;SDS011;22242;48.796;9.930;2022-07-10T02:18:45;8.23;;;5.00;;
36205;SDS011;22242;48.796;9.930;2022-07-10T02:21:12;4.75;;;4.35;;
36205;SDS011;22242;48.796;9.930;2022-07-10T02:23:38;5.28;;;4.18;;
36205;SDS011;22242;48.796;9.930;2022-07-10T02:26:06;7.32;;;4.57;;
36205;SDS011;22242;48.796;9.930;2022-07-10T02:28:35;6.50;;;4.95;;
36205;SDS011;22242;48.796;9.930;2022-07-10T02:31:02;5.32;;;4.82;;
36205;SDS011;22242;48.796;9.930;2022-07-10T02:33:29;6.68;;;4.97;;
36205;SDS011;22242;48.796;9.930;2022-07-10T02:35:56;7.30;;;4.90;;
36205;SDS011;22242;48.796;9.930;2022-07-10T02:38:23;4.93;;;4.53;;
36205;SDS011;22242;48.796;9.930;2022-07-10T02:40:50;5.47;;;4.50;;
36205;SDS011;22242;48.796;9.930;2022-07-10T02:43:17;5.32;;;4.80;;
36205;SDS011;22242;48.796;9.930;2022-07-10T02:45:46;7.55;;;4.35;;
36205;SDS011;22242;48.796;9.930;2022-07-10T02:48:13;5.82;;;4.38;;
36205;SDS011;22242;48.796;9.930;2022-07-10T02:50:41;5.13;;;4.65;;
36205;SDS011;22242;48.796;9.930;2022-07-10T02:53:08;5.25;;;4.75;;
36205;SDS011;22242;48.796;9.930;2022-07-10T02:55:35;4.72;;;4.32;;
36205;SDS011;22242;48.796;9.930;2022-07-10T02:58:02;5.65;;;5.10;;
36205;SDS011;22242;48.796;9.930;2022-07-10T03:00:29;7.40;;;5.15;;
36205;SDS011;22242;48.796;9.930;2022-07-10T03:02:58;6.40;;;5.63;;
36205;SDS011;22242;48.796;9.930;2022-07-10T03:05:25;7.18;;;4.88;;
36205;SDS011;22242;48.796;9.930;2022-07-10T03:07:52;5.38;;;4.82;;
36205;SDS011;22242;48.796;9.930;2022-07-10T03:10:19;6.40;;;5.07;;
36205;SDS011;22242;48.796;9.930;2022-07-10T03:12:47;6.95;;;4.75;;
36205;SDS011;22242;48.796;9.930;2022-07-10T03:15:14;6.50;;;5.43;;
36205;SDS011;22242;48.796;9.930;2022-07-10T03:17:41;6.38;;;5.22;;
36205;SDS011;22242;48.796;9.930;2022-07-10T03:20:09;5.43;;;5.03;;
36205;SDS011;22242;48.796;9.930;2022-07-10T03:22:37;6.53;;;5.80;;
36205;SDS011;22242;48.796;9.930;2022-07-10T03:25:05;6.22;;;4.82;;
36205;SDS011;22242;48.796;9.930;2022-07-10T03:27:32;6.00;;;5.40;;
36205;SDS011;22242;48.796;9.930;2022-07-10T03:29:59;6.47;;;5.82;;
36205;SDS011;22242;48.796;9.930;2022-07-10T03:32:26;9.57;;;5.55;;
36205;SDS011;22242;48.796;9.930;2022-07-10T03:34:53;7.07;;;5.60;;
36205;SDS011;22242;48.796;9.930;2022-07-10T03:37:22;6.30;;;5.00;;
36205;SDS011;22242;48.796;9.930;2022-07-10T03:39:49;7.75;;;5.20;;
36205;SDS011;22242;48.796;9.930;2022-07-10T03:42:16;7.47;;;5.05;;
36205;SDS011;22242;48.796;9.930;2022-07-10T03:44:43;5.25;;;4.68;;
36205;SDS011;22242;48.796;9.930;2022-07-10T03:47:10;6.53;;;5.03;;
36205;SDS011;22242;48.796;9.930;2022-07-10T03:49:37;6.28;;;5.18;;
36205;SDS011;22242;48.796;9.930;2022-07-10T03:52:06;7.95;;;5.45;;
36205;SDS011;22242;48.796;9.930;2022-07-10T03:54:35;6.47;;;4.80;;
36205;SDS011;22242;48.796;9.930;2022-07-10T03:57:02;6.53;;;5.15;;
36205;SDS011;22242;48.796;9.930;2022-07-10T03:59:47;6.07;;;5.20;;
36205;SDS011;22242;48.796;9.930;2022-07-10T04:02:14;7.88;;;4.88;;
36205;SDS011;22242;48.796;9.930;2022-07-10T04:04:41;5.15;;;4.75;;
36205;SDS011;22242;48.796;9.930;2022-07-10T04:07:08;6.72;;;5.20;;
36205;SDS011;22242;48.796;9.930;2022-07-10T04:09:39;6.53;;;5.00;;
36205;SDS011;22242;48.796;9.930;2022-07-10T04:12:06;7.50;;;5.05;;
36205;SDS011;22242;48.796;9.930;2022-07-10T04:14:33;6.57;;;4.60;;
36205;SDS011;22242;48.796;9.930;2022-07-10T04:17:00;8.68;;;4.95;;
36205;SDS011;22242;48.796;9.930;2022-07-10T04:19:27;6.63;;;5.10;;
36205;SDS011;22242;48.796;9.930;2022-07-10T04:21:54;7.88;;;4.72;;
36205;SDS011;22242;48.796;9.930;2022-07-10T04:24:21;7.93;;;4.97;;
36205;SDS011;22242;48.796;9.930;2022-07-10T04:26:49;5.57;;;4.22;;
36205;SDS011;22242;48.796;9.930;2022-07-10T04:29:16;6.63;;;4.80;;
36205;SDS011;22242;48.796;9.930;2022-07-10T04:31:43;6.63;;;5.00;;
36205;SDS011;22242;48.796;9.930;2022-07-10T04:34:10;7.20;;;4.50;;
36205;SDS011;22242;48.796;9.930;2022-07-10T04:36:37;4.85;;;4.43;;
36205;SDS011;22242;48.796;9.930;2022-07-10T04:39:04;6.85;;;4.13;;
36205;SDS011;22242;48.796;9.930;2022-07-10T04:41:32;5.45;;;4.50;;
36205;SDS011;22242;48.796;9.930;2022-07-10T04:44:00;4.75;;;4.25;;
36205;SDS011;22242;48.796;9.930;2022-07-10T04:46:27;5.80;;;4.57;;
36205;SDS011;22242;48.796;9.930;2022-07-10T04:48:54;5.95;;;4.30;;
36205;SDS011;22242;48.796;9.930;2022-07-10T04:51:21;4.93;;;4.28;;
36205;SDS011;22242;48.796;9.930;2022-07-10T04:53:49;5.50;;;4.70;;
36205;SDS011;22242;48.796;9.930;2022-07-10T04:56:16;4.68;;;4.28;;
36205;SDS011;22242;48.796;9.930;2022-07-10T04:58:43;5.57;;;3.63;;
36205;SDS011;22242;48.796;9.930;2022-07-10T05:01:12;5.10;;;4.47;;
36205;SDS011;22242;48.796;9.930;2022-07-10T05:03:39;6.60;;;4.25;;
36205;SDS011;22242;48.796;9.930;2022-07-10T05:06:05;4.88;;;4.38;;
36205;SDS011;22242;48.796;9.930;2022-07-10T05:08:33;7.22;;;3.85;;
36205;SDS011;22242;48.796;9.930;2022-07-10T05:11:00;6.30;;;3.80;;
36205;SDS011;22242;48.796;9.930;2022-07-10T05:13:27;5.72;;;4.03;;
36205;SDS011;22242;48.796;9.930;2022-07-10T05:15:53;5.13;;;3.47;;
36205;SDS011;22242;48.796;9.930;2022-07-10T05:18:22;5.63;;;3.80;;
36205;SDS011;22242;48.796;9.930;2022-07-10T05:20:49;4.28;;;3.60;;
36205;SDS011;22242;48.796;9.930;2022-07-10T05:23:16;4.70;;;3.10;;
36205;SDS011;22242;48.796;9.930;2022-07-10T05:25:43;6.90;;;3.90;;
36205;SDS011;22242;48.796;9.930;2022-07-10T05:28:10;5.80;;;3.38;;
36205;SDS011;22242;48.796;9.930;2022-07-10T05:30:39;7.57;;;3.60;;
36205;SDS011;22242;48.796;9.930;2022-07-10T05:33:06;6.20;;;3.45;;
36205;SDS011;22242;48.796;9.930;2022-07-10T05:35:35;4.13;;;2.95;;
36205;SDS011;22242;48.796;9.930;2022-07-10T05:38:02;3.88;;;3.30;;
36205;SDS011;22242;48.796;9.930;2022-07-10T05:40:29;4.65;;;3.35;;
36205;SDS011;22242;48.796;9.930;2022-07-10T05:42:56;4.65;;;3.03;;
36205;SDS011;22242;48.796;9.930;2022-07-10T05:45:22;4.60;;;3.20;;
36205;SDS011;22242;48.796;9.930;2022-07-10T05:47:50;5.20;;;2.97;;
36205;SDS011;22242;48.796;9.930;2022-07-10T05:50:17;4.65;;;3.08;;
36205;SDS011;22242;48.796;9.930;2022-07-10T05:52:45;3.00;;;2.70;;
36205;SDS011;22242;48.796;9.930;2022-07-10T05:55:12;5.38;;;2.65;;
36205;SDS011;22242;48.796;9.930;2022-07-10T05:57:39;4.32;;;2.45;;
36205;SDS011;22242;48.796;9.930;2022-07-10T06:00:07;3.65;;;2.53;;
36205;SDS011;22242;48.796;9.930;2022-07-10T06:02:38;8.77;;;2.72;;
36205;SDS011;22242;48.796;9.930;2022-07-10T06:05:06;4.22;;;2.40;;
36205;SDS011;22242;48.796;9.930;2022-07-10T06:07:33;4.38;;;1.98;;
36205;SDS011;22242;48.796;9.930;2022-07-10T06:10:03;3.50;;;1.77;;
36205;SDS011;22242;48.796;9.930;2022-07-10T06:12:31;2.75;;;1.85;;
36205;SDS011;22242;48.796;9.930;2022-07-10T06:14:57;7.32;;;1.70;;
36205;SDS011;22242;48.796;9.930;2022-07-10T06:17:24;4.53;;;1.60;;
36205;SDS011;22242;48.796;9.930;2022-07-10T06:19:52;3.80;;;1.40;;
36205;SDS011;22242;48.796;9.930;2022-07-10T06:22:19;8.18;;;2.40;;
36205;SDS011;22242;48.796;9.930;2022-07-10T06:24:59;3.05;;;1.55;;
36205;SDS011;22242;48.796;9.930;2022-07-10T06:27:27;4.28;;;1.67;;
36205;SDS011;22242;48.796;9.930;2022-07-10T06:29:55;2.70;;;1.42;;
36205;SDS011;22242;48.796;9.930;2022-07-10T06:32:22;2.95;;;1.42;;
36205;SDS011;22242;48.796;9.930;2022-07-10T06:34:49;3.75;;;1.23;;
36205;SDS011;22242;48.796;9.930;2022-07-10T06:37:16;1.98;;;1.42;;
36205;SDS011;22242;48.796;9.930;2022-07-10T06:39:44;4.80;;;1.42;;
36205;SDS011;22242;48.796;9.930;2022-07-10T06:42:12;4.95;;;1.50;;
36205;SDS011;22242;48.796;9.930;2022-07-10T06:44:41;3.88;;;1.60;;
36205;SDS011;22242;48.796;9.930;2022-07-10T06:47:08;3.15;;;1.30;;
36205;SDS011;22242;48.796;9.930;2022-07-10T06:49:54;2.70;;;1.30;;
36205;SDS011;22242;48.796;9.930;2022-07-10T06:52:21;3.08;;;1.50;;
36205;SDS011;22242;48.796;9.930;2022-07-10T06:54:49;5.82;;;1.80;;
36205;SDS011;22242;48.796;9.930;2022-07-10T06:57:16;4.38;;;1.67;;
36205;SDS011;22242;48.796;9.930;2022-07-10T06:59:46;3.83;;;1.40;;
36205;SDS011;22242;48.796;9.930;2022-07-10T07:02:13;2.60;;;1.20;;
36205;SDS011;22242;48.796;9.930;2022-07-10T07:04:40;4.18;;;1.30;;
36205;SDS011;22242;48.796;9.930;2022-07-10T07:07:07;3.28;;;1.25;;
36205;SDS011;22242;48.796;9.930;2022-07-10T07:09:34;1.85;;;1.30;;
36205;SDS011;22242;48.796;9.930;2022-07-10T07:12:01;5.57;;;1.80;;
36205;SDS011;22242;48.796;9.930;2022-07-10T07:14:29;4.18;;;1.38;;
36205;SDS011;22242;48.796;9.930;2022-07-10T07:16:57;3.72;;;1.20;;
36205;SDS011;22242;48.796;9.930;2022-07-10T07:19:28;2.50;;;1.10;;
36205;SDS011;22242;48.796;9.930;2022-07-10T07:22:18;6.13;;;0.90;;
36205;SDS011;22242;48.796;9.930;2022-07-10T07:25:03;4.80;;;1.15;;
36205;SDS011;22242;48.796;9.930;2022-07-10T07:27:30;1.67;;;0.85;;
36205;SDS011;22242;48.796;9.930;2022-07-10T07:29:57;3.13;;;0.75;;
36205;SDS011;22242;48.796;9.930;2022-07-10T07:32:28;3.97;;;1.00;;
36205;SDS011;22242;48.796;9.930;2022-07-10T07:34:55;2.33;;;1.10;;
36205;SDS011;22242;48.796;9.930;2022-07-10T07:37:22;3.55;;;0.90;;
36205;SDS011;22242;48.796;9.930;2022-07-10T07:39:49;3.63;;;1.10;;
36205;SDS011;22242;48.796;9.930;2022-07-10T07:42:17;3.40;;;0.90;;
36205;SDS011;22242;48.796;9.930;2022-07-10T07:44:44;5.03;;;1.00;;
36205;SDS011;22242;48.796;9.930;2022-07-10T07:47:14;2.78;;;0.90;;
36205;SDS011;22242;48.796;9.930;2022-07-10T07:49:42;1.42;;;0.70;;
36205;SDS011;22242;48.796;9.930;2022-07-10T07:52:09;4.60;;;1.00;;
36205;SDS011;22242;48.796;9.930;2022-07-10T07:54:36;2.60;;;0.93;;
36205;SDS011;22242;48.796;9.930;2022-07-10T07:57:04;5.95;;;1.33;;
36205;SDS011;22242;48.796;9.930;2022-07-10T07:59:31;2.00;;;1.00;;
36205;SDS011;22242;48.796;9.930;2022-07-10T08:01:58;4.78;;;0.75;;
36205;SDS011;22242;48.796;9.930;2022-07-10T08:04:25;3.15;;;0.95;;
36205;SDS011;22242;48.796;9.930;2022-07-10T08:06:54;3.58;;;0.90;;
36205;SDS011;22242;48.796;9.930;2022-07-10T08:09:21;2.80;;;1.10;;
36205;SDS011;22242;48.796;9.930;2022-07-10T08:11:48;4.38;;;0.90;;
36205;SDS011;22242;48.796;9.930;2022-07-10T08:14:15;2.88;;;1.40;;
36205;SDS011;22242;48.796;9.930;2022-07-10T08:16:42;2.60;;;0.85;;
36205;SDS011;22242;48.796;9.930;2022-07-10T08:19:09;5.20;;;0.93;;
36205;SDS011;22242;48.796;9.930;2022-07-10T08:21:36;4.03;;;1.00;;
36205;SDS011;22242;48.796;9.930;2022-07-10T08:24:04;1.45;;;0.63;;
36205;SDS011;22242;48.796;9.930;2022-07-10T08:26:32;4.13;;;0.93;;
36205;SDS011;22242;48.796;9.930;2022-07-10T08:28:58;4.10;;;1.10;;
36205;SDS011;22242;48.796;9.930;2022-07-10T08:31:26;2.53;;;0.90;;
36205;SDS011;22242;48.796;9.930;2022-07-10T08:33:53;2.10;;;0.73;;
36205;SDS011;22242;48.796;9.930;2022-07-10T08:36:19;5.47;;;1.20;;
36205;SDS011;22242;48.796;9.930;2022-07-10T08:38:46;6.13;;;1.10;;
36205;SDS011;22242;48.796;9.930;2022-07-10T08:41:15;7.18;;;1.33;;
36205;SDS011;22242;48.796;9.930;2022-07-10T08:43:48;2.88;;;0.90;;
36205;SDS011;22242;48.796;9.930;2022-07-10T08:46:15;2.75;;;0.70;;
36205;SDS011;22242;48.796;9.930;2022-07-10T08:48:44;7.45;;;1.33;;
36205;SDS011;22242;48.796;9.930;2022-07-10T08:51:17;1.88;;;0.77;;
36205;SDS011;22242;48.796;9.930;2022-07-10T08:53:51;4.38;;;0.77;;
36205;SDS011;22242;48.796;9.930;2022-07-10T08:56:21;2.20;;;0.82;;
36205;SDS011;22242;48.796;9.930;2022-07-10T08:58:47;2.25;;;0.98;;
36205;SDS011;22242;48.796;9.930;2022-07-10T09:01:18;1.92;;;0.85;;
36205;SDS011;22242;48.796;9.930;2022-07-10T09:03:48;1.80;;;0.80;;
36205;SDS011;22242;48.796;9.930;2022-07-10T09:06:15;0.90;;;0.60;;
36205;SDS011;22242;48.796;9.930;2022-07-10T09:08:57;1.90;;;0.70;;
36205;SDS011;22242;48.796;9.930;2022-07-10T09:11:27;4.68;;;0.98;;
36205;SDS011;22242;48.796;9.930;2022-07-10T09:13:56;3.45;;;0.80;;
36205;SDS011;22242;48.796;9.930;2022-07-10T09:16:24;4.78;;;0.90;;
36205;SDS011;22242;48.796;9.930;2022-07-10T09:18:52;1.88;;;0.80;;
36205;SDS011;22242;48.796;9.930;2022-07-10T09:21:20;3.58;;;0.95;;
36205;SDS011;22242;48.796;9.930;2022-07-10T09:23:47;3.53;;;1.10;;
36205;SDS011;22242;48.796;9.930;2022-07-10T09:26:14;4.13;;;1.00;;
36205;SDS011;22242;48.796;9.930;2022-07-10T09:28:43;3.55;;;1.27;;
36205;SDS011;22242;48.796;9.930;2022-07-10T09:31:10;2.75;;;0.90;;
36205;SDS011;22242;48.796;9.930;2022-07-10T09:33:39;3.78;;;1.02;;
36205;SDS011;22242;48.796;9.930;2022-07-10T09:36:07;3.97;;;1.33;;
36205;SDS011;22242;48.796;9.930;2022-07-10T09:38:51;2.30;;;0.88;;
36205;SDS011;22242;48.796;9.930;2022-07-10T09:43:49;3.85;;;1.10;;
36205;SDS011;22242;48.796;9.930;2022-07-10T09:46:17;1.52;;;0.82;;
36205;SDS011;22242;48.796;9.930;2022-07-10T09:48:45;3.08;;;1.00;;
36205;SDS011;22242;48.796;9.930;2022-07-10T09:51:12;2.00;;;0.90;;
36205;SDS011;22242;48.796;9.930;2022-07-10T09:53:40;1.75;;;0.90;;
36205;SDS011;22242;48.796;9.930;2022-07-10T09:56:09;3.10;;;0.90;;
36205;SDS011;22242;48.796;9.930;2022-07-10T09:58:37;2.10;;;0.80;;
36205;SDS011;22242;48.796;9.930;2022-07-10T10:01:07;1.95;;;1.00;;
36205;SDS011;22242;48.796;9.930;2022-07-10T10:03:36;3.60;;;1.27;;
36205;SDS011;22242;48.796;9.930;2022-07-10T10:06:08;3.75;;;1.00;;
36205;SDS011;22242;48.796;9.930;2022-07-10T10:08:43;3.35;;;1.00;;
36205;SDS011;22242;48.796;9.930;2022-07-10T10:11:16;2.25;;;0.90;;
36205;SDS011;22242;48.796;9.930;2022-07-10T10:13:47;2.90;;;1.08;;
36205;SDS011;22242;48.796;9.930;2022-07-10T10:16:17;2.38;;;1.00;;
36205;SDS011;22242;48.796;9.930;2022-07-10T10:18:46;1.80;;;0.90;;
36205;SDS011;22242;48.796;9.930;2022-07-10T10:21:31;1.92;;;0.90;;
36205;SDS011;22242;48.796;9.930;2022-07-10T10:24:00;1.42;;;0.80;;
36205;SDS011;22242;48.796;9.930;2022-07-10T10:26:28;1.83;;;0.80;;
36205;SDS011;22242;48.796;9.930;2022-07-10T10:28:56;2.45;;;0.90;;
36205;SDS011;22242;48.796;9.930;2022-07-10T10:31:27;1.88;;;0.80;;
36205;SDS011;22242;48.796;9.930;2022-07-10T10:33:55;1.83;;;1.00;;
36205;SDS011;22242;48.796;9.930;2022-07-10T10:36:43;4.13;;;0.88;;
36205;SDS011;22242;48.796;9.930;2022-07-10T10:39:11;2.78;;;0.93;;
36205;SDS011;22242;48.796;9.930;2022-07-10T10:41:44;5.40;;;1.20;;
36205;SDS011;22242;48.796;9.930;2022-07-10T10:44:20;2.78;;;0.90;;
36205;SDS011;22242;48.796;9.930;2022-07-10T10:46:56;2.30;;;1.27;;
36205;SDS011;22242;48.796;9.930;2022-07-10T10:52:17;3.33;;;0.80;;
36205;SDS011;22242;48.796;9.930;2022-07-10T10:55:05;1.23;;;0.68;;
36205;SDS011;22242;48.796;9.930;2022-07-10T10:57:40;2.15;;;1.00;;
36205;SDS011;22242;48.796;9.930;2022-07-10T11:00:15;1.55;;;1.40;;
36205;SDS011;22242;48.796;9.930;2022-07-10T11:03:22;3.10;;;0.80;;
36205;SDS011;22242;48.796;9.930;2022-07-10T11:05:50;6.22;;;0.90;;
36205;SDS011;22242;48.796;9.930;2022-07-10T11:08:37;2.83;;;1.15;;
36205;SDS011;22242;48.796;9.930;2022-07-10T11:14:05;3.70;;;1.00;;
36205;SDS011;22242;48.796;9.930;2022-07-10T11:16:33;2.25;;;1.00;;
36205;SDS011;22242;48.796;9.930;2022-07-10T11:19:02;5.25;;;1.33;;
36205;SDS011;22242;48.796;9.930;2022-07-10T11:21:31;1.98;;;0.70;;
36205;SDS011;22242;48.796;9.930;2022-07-10T11:24:06;1.98;;;0.80;;
36205;SDS011;22242;48.796;9.930;2022-07-10T11:26:42;1.35;;;0.82;;
36205;SDS011;22242;48.796;9.930;2022-07-10T11:29:21;1.98;;;1.80;;
36205;SDS011;22242;48.796;9.930;2022-07-10T11:31:52;1.80;;;0.88;;
36205;SDS011;22242;48.796;9.930;2022-07-10T11:34:20;2.35;;;0.90;;
36205;SDS011;22242;48.796;9.930;2022-07-10T11:36:48;3.30;;;0.85;;
36205;SDS011;22242;48.796;9.930;2022-07-10T11:39:15;0.70;;;0.70;;
36205;SDS011;22242;48.796;9.930;2022-07-10T11:41:43;1.73;;;0.80;;
36205;SDS011;22242;48.796;9.930;2022-07-10T11:44:13;1.95;;;0.90;;
36205;SDS011;22242;48.796;9.930;2022-07-10T11:46:41;1.38;;;0.73;;
36205;SDS011;22242;48.796;9.930;2022-07-10T11:49:10;1.55;;;1.02;;
36205;SDS011;22242;48.796;9.930;2022-07-10T11:51:41;4.57;;;0.73;;
36205;SDS011;22242;48.796;9.930;2022-07-10T11:54:10;2.58;;;0.75;;
36205;SDS011;22242;48.796;9.930;2022-07-10T11:56:41;3.17;;;0.93;;
36205;SDS011;22242;48.796;9.930;2022-07-10T11:59:13;3.30;;;0.93;;
36205;SDS011;22242;48.796;9.930;2022-07-10T12:01:41;1.27;;;0.70;;
36205;SDS011;22242;48.796;9.930;2022-07-10T12:04:10;3.45;;;0.90;;
36205;SDS011;22242;48.796;9.930;2022-07-10T12:06:39;1.80;;;0.73;;
36205;SDS011;22242;48.796;9.930;2022-07-10T12:09:09;2.42;;;0.70;;
36205;SDS011;22242;48.796;9.930;2022-07-10T12:11:39;2.00;;;0.50;;
36205;SDS011;22242;48.796;9.930;2022-07-10T12:14:11;2.13;;;0.73;;
36205;SDS011;22242;48.796;9.930;2022-07-10T12:19:08;1.35;;;0.85;;
36205;SDS011;22242;48.796;9.930;2022-07-10T12:21:37;1.40;;;0.60;;
36205;SDS011;22242;48.796;9.930;2022-07-10T12:24:06;1.30;;;0.60;;
36205;SDS011;22242;48.796;9.930;2022-07-10T12:26:34;1.80;;;0.63;;
36205;SDS011;22242;48.796;9.930;2022-07-10T12:29:02;0.88;;;0.47;;
36205;SDS011;22242;48.796;9.930;2022-07-10T12:31:30;2.05;;;0.70;;
36205;SDS011;22242;48.796;9.930;2022-07-10T12:33:59;1.92;;;0.50;;
36205;SDS011;22242;48.796;9.930;2022-07-10T12:36:46;3.72;;;0.60;;
36205;SDS011;22242;48.796;9.930;2022-07-10T12:39:16;1.75;;;0.63;;
36205;SDS011;22242;48.796;9.930;2022-07-10T12:41:54;2.53;;;0.70;;
36205;SDS011;22242;48.796;9.930;2022-07-10T12:44:32;2.33;;;0.52;;
36205;SDS011;22242;48.796;9.930;2022-07-10T12:47:01;2.53;;;0.73;;
36205;SDS011;22242;48.796;9.930;2022-07-10T12:49:28;2.42;;;0.70;;
36205;SDS011;22242;48.796;9.930;2022-07-10T12:51:55;1.58;;;0.57;;
36205;SDS011;22242;48.796;9.930;2022-07-10T12:54:33;1.80;;;0.60;;
36205;SDS011;22242;48.796;9.930;2022-07-10T12:57:02;1.67;;;0.60;;
36205;SDS011;22242;48.796;9.930;2022-07-10T12:59:32;1.80;;;0.60;;
36205;SDS011;22242;48.796;9.930;2022-07-10T13:02:12;1.67;;;0.60;;
36205;SDS011;22242;48.796;9.930;2022-07-10T13:04:51;1.42;;;0.65;;
36205;SDS011;22242;48.796;9.930;2022-07-10T13:07:18;2.40;;;0.70;;
36205;SDS011;22242;48.796;9.930;2022-07-10T13:09:48;1.85;;;0.65;;
36205;SDS011;22242;48.796;9.930;2022-07-10T13:12:16;1.85;;;0.77;;
36205;SDS011;22242;48.796;9.930;2022-07-10T13:14:43;2.85;;;0.57;;
36205;SDS011;22242;48.796;9.930;2022-07-10T13:17:12;2.05;;;0.60;;
36205;SDS011;22242;48.796;9.930;2022-07-10T13:19:38;2.88;;;0.60;;
36205;SDS011;22242;48.796;9.930;2022-07-10T13:22:06;1.75;;;0.75;;
36205;SDS011;22242;48.796;9.930;2022-07-10T13:24:32;1.02;;;0.45;;
36205;SDS011;22242;48.796;9.930;2022-07-10T13:27:01;1.15;;;0.45;;
36205;SDS011;22242;48.796;9.930;2022-07-10T13:29:28;1.42;;;0.50;;
36205;SDS011;22242;48.796;9.930;2022-07-10T13:31:55;2.42;;;0.70;;
36205;SDS011;22242;48.796;9.930;2022-07-10T13:34:22;1.27;;;0.55;;
36205;SDS011;22242;48.796;9.930;2022-07-10T13:36:49;1.58;;;0.63;;
36205;SDS011;22242;48.796;9.930;2022-07-10T13:39:19;3.90;;;0.60;;
36205;SDS011;22242;48.796;9.930;2022-07-10T13:41:46;2.28;;;0.63;;
36205;SDS011;22242;48.796;9.930;2022-07-10T13:44:14;2.22;;;0.70;;
36205;SDS011;22242;48.796;9.930;2022-07-10T13:46:41;3.30;;;0.60;;
36205;SDS011;22242;48.796;9.930;2022-07-10T13:49:08;1.17;;;0.70;;
36205;SDS011;22242;48.796;9.930;2022-07-10T13:51:35;1.20;;;0.70;;
36205;SDS011;22242;48.796;9.930;2022-07-10T13:54:02;2.38;;;0.80;;
36205;SDS011;22242;48.796;9.930;2022-07-10T13:56:29;4.50;;;0.60;;
36205;SDS011;22242;48.796;9.930;2022-07-10T13:58:57;2.95;;;0.55;;
36205;SDS011;22242;48.796;9.930;2022-07-10T14:01:25;2.80;;;0.77;;
36205;SDS011;22242;48.796;9.930;2022-07-10T14:03:52;1.17;;;0.60;;
36205;SDS011;22242;48.796;9.930;2022-07-10T14:06:19;3.08;;;0.73;;
36205;SDS011;22242;48.796;9.930;2022-07-10T14:08:46;2.05;;;0.73;;
36205;SDS011;22242;48.796;9.930;2022-07-10T14:11:13;0.70;;;0.60;;
36205;SDS011;22242;48.796;9.930;2022-07-10T14:13:40;1.55;;;0.52;;
36205;SDS011;22242;48.796;9.930;2022-07-10T14:16:07;2.22;;;0.82;;
36205;SDS011;22242;48.796;9.930;2022-07-10T14:18:35;1.17;;;0.60;;
36205;SDS011;22242;48.796;9.930;2022-07-10T14:21:04;1.33;;;0.65;;
36205;SDS011;22242;48.796;9.930;2022-07-10T14:23:34;2.80;;;1.15;;
36205;SDS011;22242;48.796;9.930;2022-07-10T14:26:02;1.75;;;0.50;;
36205;SDS011;22242;48.796;9.930;2022-07-10T14:28:30;0.60;;;0.30;;
36205;SDS011;22242;48.796;9.930;2022-07-10T14:30:59;2.60;;;0.65;;
36205;SDS011;22242;48.796;9.930;2022-07-10T14:33:28;2.72;;;0.80;;
36205;SDS011;22242;48.796;9.930;2022-07-10T14:35:57;0.93;;;0.55;;
36205;SDS011;22242;48.796;9.930;2022-07-10T14:38:24;2.15;;;0.40;;
36205;SDS011;22242;48.796;9.930;2022-07-10T14:40:52;1.85;;;0.60;;
36205;SDS011;22242;48.796;9.930;2022-07-10T14:43:20;4.00;;;0.70;;
36205;SDS011;22242;48.796;9.930;2022-07-10T14:45:48;2.53;;;0.65;;
36205;SDS011;22242;48.796;9.930;2022-07-10T14:48:15;1.30;;;0.50;;
36205;SDS011;22242;48.796;9.930;2022-07-10T14:50:42;2.35;;;0.60;;
36205;SDS011;22242;48.796;9.930;2022-07-10T14:53:11;1.55;;;0.65;;
36205;SDS011;22242;48.796;9.930;2022-07-10T14:55:38;2.05;;;0.70;;
36205;SDS011;22242;48.796;9.930;2022-07-10T14:58:05;1.67;;;0.60;;
36205;SDS011;22242;48.796;9.930;2022-07-10T15:00:32;2.38;;;0.60;;
36205;SDS011;22242;48.796;9.930;2022-07-10T15:02:59;1.98;;;0.60;;
36205;SDS011;22242;48.796;9.930;2022-07-10T15:05:26;0.73;;;0.38;;
36205;SDS011;22242;48.796;9.930;2022-07-10T15:07:53;2.47;;;0.60;;